Time;durP1;ratioP1;P1;durP2;ratioP2;P2;SDS_P1;SDS_P2;PMS_P1;PMS_P2;Temp;Humidity;BMP_temperature;BMP_pressure;BME280_temperature;BME280_humidity;BME280_pressure;Samples;Min_cycle;Max_cycle;Signal;HPM_P1;HPM_P2
2021/03/03 00:02:23;;;;;;;4.72;2.97;;;20.80;45.80;;;;;;5015894;28;20094;-39
2021/03/03 00:04:49;;;;;;;4.75;3.40;;;20.90;45.90;;;;;;5033416;28;20360;-39
2021/03/03 00:07:15;;;;;;;5.10;3.50;;;20.80;45.80;;;;;;5033630;28;20025;-39
2021/03/03 00:09:41;;;;;;;6.90;3.75;;;20.80;46.40;;;;;;5033085;28;20147;-38
2021/03/03 00:12:08;;;;;;;4.38;3.10;;;20.80;45.80;;;;;;5033900;28;20382;-38
2021/03/03 00:14:34;;;;;;;5.07;3.47;;;20.80;45.70;;;;;;5033036;28;20053;-42
2021/03/03 00:16:59;;;;;;;4.22;3.28;;;20.80;45.70;;;;;;5032466;28;20077;-38
2021/03/03 00:19:25;;;;;;;5.28;3.55;;;20.80;45.70;;;;;;5025550;28;20037;-39
2021/03/03 00:21:51;;;;;;;4.70;3.40;;;20.80;45.60;;;;;;5033006;28;20072;-38
2021/03/03 00:24:16;;;;;;;5.85;3.53;;;20.80;45.60;;;;;;5033565;28;20037;-38
2021/03/03 00:26:42;;;;;;;5.25;3.50;;;20.80;45.60;;;;;;5032263;28;20033;-38
2021/03/03 00:29:07;;;;;;;4.57;3.47;;;20.80;45.60;;;;;;5033242;28;20108;-44
2021/03/03 00:31:33;;;;;;;5.22;3.10;;;20.80;45.60;;;;;;5032972;28;20037;-38
2021/03/03 00:33:59;;;;;;;4.13;3.03;;;20.80;45.50;;;;;;5015040;28;20060;-38
2021/03/03 00:36:24;;;;;;;6.10;3.30;;;20.80;45.50;;;;;;5033199;28;20025;-39
2021/03/03 00:38:50;;;;;;;5.82;3.97;;;20.80;45.50;;;;;;5032302;28;20049;-39
2021/03/03 00:41:15;;;;;;;5.70;3.60;;;20.80;45.50;;;;;;5033238;28;20029;-39
2021/03/03 00:43:41;;;;;;;5.10;3.33;;;20.80;45.40;;;;;;5032549;28;20476;-39
2021/03/03 00:46:07;;;;;;;6.20;3.42;;;20.80;45.40;;;;;;5031169;28;20022;-40
2021/03/03 00:48:32;;;;;;;3.42;3.08;;;20.70;45.30;;;;;;5033317;28;20053;-39
2021/03/03 00:50:58;;;;;;;4.00;3.17;;;20.80;45.40;;;;;;5032273;28;20044;-43
2021/03/03 00:53:23;;;;;;;5.50;3.40;;;20.80;45.40;;;;;;5033175;28;20050;-39
2021/03/03 00:55:53;;;;;;;7.43;3.55;;;20.80;45.40;;;;;;5031654;28;20104;-42
2021/03/03 00:58:19;;;;;;;5.85;3.53;;;20.80;45.30;;;;;;5025228;28;20037;-39
2021/03/03 01:00:45;;;;;;;6.30;3.85;;;20.80;45.40;;;;;;5031617;28;20061;-39
2021/03/03 01:03:11;;;;;;;7.10;3.75;;;20.70;45.30;;;;;;5021722;28;20030;-40
2021/03/03 01:05:40;;;;;;;4.78;3.47;;;20.80;45.30;;;;;;5010172;28;20037;-43
2021/03/03 01:08:06;;;;;;;3.90;2.83;;;20.70;45.20;;;;;;5030913;28;20473;-38
2021/03/03 01:10:32;;;;;;;6.75;3.42;;;20.70;45.30;;;;;;5032630;28;20074;-39
2021/03/03 01:12:57;;;;;;;4.80;3.47;;;20.70;45.20;;;;;;5032202;28;20037;-40
2021/03/03 01:15:23;;;;;;;5.43;3.38;;;20.70;45.20;;;;;;5032321;28;20032;-39
2021/03/03 01:17:49;;;;;;;6.78;3.60;;;20.70;45.20;;;;;;5031847;28;20052;-39
2021/03/03 01:20:14;;;;;;;4.50;3.15;;;20.70;45.20;;;;;;5032685;28;20416;-39
2021/03/03 01:22:40;;;;;;;4.25;3.13;;;20.70;45.20;;;;;;5031774;28;20021;-40
2021/03/03 01:25:06;;;;;;;4.07;3.25;;;20.70;45.20;;;;;;5032289;28;20065;-39
2021/03/03 01:27:32;;;;;;;6.00;3.40;;;20.70;45.20;;;;;;5032345;28;20083;-39
2021/03/03 01:29:58;;;;;;;4.57;3.08;;;20.70;45.20;;;;;;5031442;28;20633;-41
2021/03/03 01:32:23;;;;;;;5.40;3.38;;;20.70;45.10;;;;;;5031908;28;20052;-40
2021/03/03 01:34:49;;;;;;;4.93;3.30;;;20.70;45.10;;;;;;5031260;28;20160;-39
2021/03/03 01:37:14;;;;;;;7.55;3.55;;;20.70;45.10;;;;;;5031344;28;20466;-40
2021/03/03 01:39:40;;;;;;;5.15;3.88;;;20.70;45.10;;;;;;5031540;28;20029;-42
2021/03/03 01:42:06;;;;;;;5.15;3.28;;;20.70;45.10;;;;;;5031638;28;20481;-39
2021/03/03 01:44:32;;;;;;;5.25;3.47;;;20.70;45.10;;;;;;5032332;28;20101;-39
2021/03/03 01:46:57;;;;;;;5.28;3.20;;;20.70;45.10;;;;;;5031270;28;20068;-39
2021/03/03 01:49:23;;;;;;;4.82;3.55;;;20.70;45.10;;;;;;5031449;28;20026;-40
2021/03/03 01:51:48;;;;;;;5.55;3.15;;;20.70;45.00;;;;;;5031253;28;20117;-39
2021/03/03 01:54:14;;;;;;;5.50;2.97;;;20.70;45.00;;;;;;5032169;28;20025;-39
2021/03/03 01:56:39;;;;;;;5.45;3.40;;;20.70;45.10;;;;;;5013462;28;20444;-42
2021/03/03 01:59:05;;;;;;;4.63;3.10;;;20.70;45.00;;;;;;5031584;28;20057;-39
2021/03/03 02:01:31;;;;;;;4.28;3.53;;;20.70;45.00;;;;;;5031394;28;20036;-39
2021/03/03 02:03:57;;;;;;;4.15;3.22;;;20.70;45.00;;;;;;5031299;28;20108;-39
2021/03/03 02:06:37;;;;;;;3.92;3.30;;;20.70;45.00;;;;;;5026369;28;20021;-39
2021/03/03 02:09:08;;;;;;;6.03;3.10;;;20.70;45.00;;;;;;5030421;28;20030;-42
2021/03/03 02:12:07;;;;;;;4.68;3.08;;;20.70;44.90;;;;;;5030362;28;20045;-42
2021/03/03 02:14:34;;;;;;;5.53;3.33;;;20.70;44.90;;;;;;5027610;28;20394;-41
2021/03/03 02:17:02;;;;;;;5.90;3.20;;;20.70;44.90;;;;;;5012729;28;20681;-42
2021/03/03 02:19:36;;;;;;;4.75;3.25;;;20.70;44.90;;;;;;5031510;28;20033;-43
2021/03/03 02:22:18;;;;;;;4.38;3.42;;;20.70;44.90;;;;;;5030528;28;20057;-40
2021/03/03 02:24:56;;;;;;;5.22;3.33;;;20.70;44.90;;;;;;5028401;28;20087;-41
2021/03/03 02:27:23;;;;;;;5.32;3.67;;;20.70;44.90;;;;;;5031470;28;20425;-39
2021/03/03 02:29:51;;;;;;;5.65;3.28;;;20.70;44.90;;;;;;5030092;28;20030;-39
2021/03/03 02:32:18;;;;;;;4.82;2.78;;;20.70;44.90;;;;;;5030938;28;20038;-43
2021/03/03 02:34:45;;;;;;;5.65;3.40;;;20.70;44.80;;;;;;5030019;28;20052;-39
2021/03/03 02:37:17;;;;;;;4.05;3.20;;;20.70;44.80;;;;;;5013090;28;20033;-40
2021/03/03 02:39:43;;;;;;;5.30;3.38;;;20.70;44.80;;;;;;5029912;28;20029;-41
2021/03/03 02:42:10;;;;;;;5.93;3.67;;;20.70;44.80;;;;;;5013330;28;20112;-39
2021/03/03 02:44:38;;;;;;;4.45;3.40;;;20.70;44.80;;;;;;5030974;28;20033;-39
2021/03/03 02:47:04;;;;;;;5.60;3.38;;;20.70;44.80;;;;;;5030235;28;20029;-39
2021/03/03 02:49:31;;;;;;;4.20;3.05;;;20.70;44.80;;;;;;5030620;28;20041;-39
2021/03/03 02:51:57;;;;;;;4.70;3.10;;;20.70;44.80;;;;;;5030264;28;20028;-42
2021/03/03 02:54:23;;;;;;;3.85;3.03;;;20.70;44.80;;;;;;5031024;28;20030;-41
2021/03/03 02:56:49;;;;;;;5.60;3.35;;;20.70;44.80;;;;;;5030204;28;20038;-39
2021/03/03 02:59:19;;;;;;;4.15;3.20;;;20.70;44.80;;;;;;5030890;28;20038;-39
2021/03/03 03:01:48;;;;;;;5.45;3.35;;;20.70;44.80;;;;;;5029675;28;20022;-39
2021/03/03 03:04:18;;;;;;;5.72;3.10;;;20.70;44.70;;;;;;5030998;28;20038;-40
2021/03/03 03:06:44;;;;;;;4.30;3.30;;;20.70;44.70;;;;;;5029750;28;20025;-45
2021/03/03 03:09:14;;;;;;;3.83;3.03;;;20.70;44.70;;;;;;5031487;28;20025;-41
2021/03/03 03:11:58;;;;;;;5.05;3.63;;;20.70;45.30;;;;;;5030260;28;20033;-43
2021/03/03 03:14:27;;;;;;;5.88;3.33;;;20.70;44.70;;;;;;5029242;28;20068;-42
2021/03/03 03:16:56;;;;;;;4.72;3.50;;;20.70;44.70;;;;;;5030122;28;20037;-40
2021/03/03 03:19:25;;;;;;;4.13;3.10;;;20.70;44.70;;;;;;5030163;28;20029;-40
2021/03/03 03:21:52;;;;;;;6.85;3.55;;;20.70;44.60;;;;;;5024212;28;20481;-39
2021/03/03 03:24:19;;;;;;;4.70;3.20;;;20.70;44.60;;;;;;5033752;28;20021;-39
2021/03/03 03:26:48;;;;;;;4.63;3.28;;;20.70;44.60;;;;;;5033360;28;20474;-39
2021/03/03 03:29:14;;;;;;;4.53;2.95;;;20.70;44.60;;;;;;5034404;28;20033;-39
2021/03/03 03:31:40;;;;;;;7.30;3.45;;;20.70;44.60;;;;;;5033897;28;20046;-42
2021/03/03 03:34:07;;;;;;;5.05;3.15;;;20.80;44.70;;;;;;5033681;28;20045;-40
2021/03/03 03:36:35;;;;;;;6.43;4.03;;;20.70;44.60;;;;;;5034281;28;20029;-39
2021/03/03 03:39:02;;;;;;;4.45;3.15;;;20.70;44.60;;;;;;5014928;28;20038;-43
2021/03/03 03:41:29;;;;;;;4.43;3.58;;;20.70;44.60;;;;;;5033571;28;20049;-39
2021/03/03 03:43:57;;;;;;;5.82;3.45;;;20.70;44.60;;;;;;5034268;28;20033;-39
2021/03/03 03:46:23;;;;;;;4.65;3.60;;;20.70;44.60;;;;;;5027443;28;20033;-39
2021/03/03 03:48:49;;;;;;;5.03;3.03;;;20.70;44.60;;;;;;5033648;28;20040;-39
2021/03/03 03:51:15;;;;;;;4.38;3.25;;;20.70;44.60;;;;;;5016633;28;20029;-39
2021/03/03 03:53:41;;;;;;;5.68;3.72;;;20.70;44.50;;;;;;5033770;28;20474;-44
2021/03/03 03:56:08;;;;;;;4.75;3.10;;;20.70;44.50;;;;;;5033884;28;20025;-38
2021/03/03 03:58:33;;;;;;;4.93;3.55;;;20.70;44.50;;;;;;5032018;28;20121;-39
2021/03/03 04:00:59;;;;;;;6.38;3.58;;;20.70;44.50;;;;;;5033042;28;20116;-40
2021/03/03 04:03:25;;;;;;;4.63;3.38;;;20.70;44.50;;;;;;5033548;28;20498;-39
2021/03/03 04:05:51;;;;;;;4.63;3.17;;;20.70;44.50;;;;;;5032859;28;20482;-44
2021/03/03 04:08:17;;;;;;;5.45;3.72;;;20.70;44.40;;;;;;5033771;28;20152;-40
2021/03/03 04:10:43;;;;;;;4.40;2.85;;;20.70;44.40;;;;;;5033105;28;20104;-42
2021/03/03 04:13:09;;;;;;;4.20;2.97;;;20.70;44.50;;;;;;5018374;28;20409;-40
2021/03/03 04:15:34;;;;;;;4.88;3.58;;;20.70;44.40;;;;;;5034125;28;20026;-40
2021/03/03 04:18:00;;;;;;;5.07;3.58;;;20.70;44.40;;;;;;5032466;28;20041;-40
2021/03/03 04:20:26;;;;;;;4.65;3.63;;;20.80;45.00;;;;;;5033022;28;20040;-39
2021/03/03 04:22:51;;;;;;;4.07;3.00;;;20.70;44.40;;;;;;5032691;28;20040;-39
2021/03/03 04:25:18;;;;;;;5.28;3.22;;;20.70;44.40;;;;;;5033356;28;20478;-45
2021/03/03 04:27:44;;;;;;;3.63;2.97;;;20.70;44.40;;;;;;5032666;28;20025;-47
2021/03/03 04:30:15;;;;;;;5.55;3.45;;;20.70;44.40;;;;;;5033559;28;20037;-39
2021/03/03 04:32:40;;;;;;;5.20;3.30;;;20.70;44.40;;;;;;5033489;28;20060;-39
2021/03/03 04:35:07;;;;;;;3.33;2.90;;;20.70;44.30;;;;;;5032120;28;20269;-40
2021/03/03 04:37:33;;;;;;;4.13;3.28;;;20.80;44.40;;;;;;5032628;28;20060;-39
2021/03/03 04:39:58;;;;;;;4.70;3.42;;;20.80;44.40;;;;;;5032210;28;20434;-39
2021/03/03 04:42:24;;;;;;;4.28;3.03;;;20.80;44.30;;;;;;5033671;28;20032;-41
2021/03/03 04:44:50;;;;;;;4.50;3.65;;;20.70;44.30;;;;;;5032295;28;20033;-39
2021/03/03 04:47:16;;;;;;;5.85;3.95;;;20.70;44.30;;;;;;5032899;28;20030;-41
2021/03/03 04:49:42;;;;;;;4.10;2.72;;;20.70;44.30;;;;;;5015021;28;20033;-45
2021/03/03 04:52:08;;;;;;;5.40;3.30;;;20.80;44.40;;;;;;5032511;28;20048;-39
2021/03/03 04:54:36;;;;;;;4.40;3.25;;;20.70;44.30;;;;;;5032687;28;20036;-39
2021/03/03 04:57:05;;;;;;;5.07;3.88;;;20.80;44.40;;;;;;5031804;28;20573;-40
2021/03/03 04:59:31;;;;;;;4.22;3.22;;;20.70;44.30;;;;;;4997516;28;20030;-40
2021/03/03 05:01:57;;;;;;;3.70;3.13;;;20.70;44.20;;;;;;5032222;28;20037;-38
2021/03/03 05:04:23;;;;;;;4.57;3.15;;;20.80;44.40;;;;;;5032379;28;20033;-40
2021/03/03 05:06:49;;;;;;;5.70;3.28;;;20.80;44.30;;;;;;5032198;28;20099;-39
2021/03/03 05:09:14;;;;;;;4.20;3.40;;;20.80;44.30;;;;;;5032697;28;20025;-39
2021/03/03 05:11:40;;;;;;;5.25;3.78;;;20.70;44.20;;;;;;5032808;28;20374;-39
2021/03/03 05:14:06;;;;;;;5.60;3.15;;;20.70;44.30;;;;;;5032414;28;20646;-39
2021/03/03 05:16:32;;;;;;;5.35;3.50;;;20.70;44.20;;;;;;5032717;28;20021;-39
2021/03/03 05:18:57;;;;;;;4.80;3.38;;;20.80;44.20;;;;;;5031214;28;20036;-39
2021/03/03 05:21:23;;;;;;;4.20;3.13;;;20.70;44.10;;;;;;5025425;28;20033;-40
2021/03/03 05:23:48;;;;;;;4.15;2.97;;;20.70;44.20;;;;;;5028332;28;20501;-39
2021/03/03 05:26:14;;;;;;;6.75;3.63;;;20.70;44.20;;;;;;5032337;28;20026;-42
2021/03/03 05:28:40;;;;;;;4.45;3.38;;;20.80;44.20;;;;;;5032748;28;20520;-40
2021/03/03 05:31:06;;;;;;;4.25;3.08;;;20.70;44.20;;;;;;5032106;28;20590;-39
2021/03/03 05:33:33;;;;;;;4.88;3.35;;;20.70;44.10;;;;;;5032543;28;20041;-43
2021/03/03 05:36:06;;;;;;;5.25;3.50;;;20.70;44.10;;;;;;5031004;28;20048;-40
2021/03/03 05:38:36;;;;;;;4.20;3.35;;;20.80;44.10;;;;;;5032126;28;20037;-39
2021/03/03 05:41:02;;;;;;;4.00;3.03;;;20.80;44.00;;;;;;5031563;28;20037;-39
2021/03/03 05:43:30;;;;;;;5.93;3.55;;;20.80;44.10;;;;;;5031934;28;20032;-39
2021/03/03 05:45:58;;;;;;;4.47;3.30;;;20.80;44.10;;;;;;5025695;28;20421;-41
2021/03/03 05:48:27;;;;;;;3.90;2.95;;;20.80;44.10;;;;;;5002501;28;20030;-39
2021/03/03 05:51:00;;;;;;;4.75;3.40;;;20.70;44.00;;;;;;5023358;28;20386;-39
2021/03/03 05:53:27;;;;;;;4.80;3.45;;;20.80;44.10;;;;;;5024904;28;20025;-39
2021/03/03 05:55:58;;;;;;;5.63;3.45;;;20.80;44.00;;;;;;5019480;28;20033;-39
2021/03/03 05:58:26;;;;;;;5.72;3.72;;;20.80;44.10;;;;;;5025719;28;20041;-39
2021/03/03 06:00:57;;;;;;;5.40;3.90;;;20.80;44.00;;;;;;5021887;28;20026;-39
2021/03/03 06:03:24;;;;;;;4.87;3.17;;;20.80;44.00;;;;;;5023033;28;20466;-40
2021/03/03 06:05:50;;;;;;;4.05;3.42;;;20.80;44.00;;;;;;5020129;28;20030;-39
2021/03/03 06:08:21;;;;;;;5.07;3.03;;;20.80;44.00;;;;;;5031110;28;20033;-39
2021/03/03 06:10:47;;;;;;;5.32;3.28;;;20.80;44.00;;;;;;5030775;28;20056;-44
2021/03/03 06:13:14;;;;;;;5.18;3.30;;;20.80;44.00;;;;;;5031575;28;20045;-41
2021/03/03 06:15:40;;;;;;;5.78;3.38;;;20.80;44.00;;;;;;5031774;28;20021;-39
2021/03/03 06:18:11;;;;;;;4.18;3.25;;;20.80;44.00;;;;;;5030959;28;20107;-39
2021/03/03 06:20:38;;;;;;;4.20;3.40;;;20.80;44.00;;;;;;5031314;28;20425;-39
2021/03/03 06:23:22;;;;;;;6.30;3.35;;;20.80;44.00;;;;;;5030470;28;20463;-39
2021/03/03 06:26:10;;;;;;;6.15;3.78;;;20.80;44.00;;;;;;5030653;28;20478;-42
2021/03/03 06:28:43;;;;;;;7.50;3.47;;;20.80;44.00;;;;;;5000179;28;20052;-39
2021/03/03 06:31:30;;;;;;;7.60;3.40;;;20.80;44.20;;;;;;5021182;28;20518;-40
2021/03/03 06:34:21;;;;;;;5.43;3.13;;;20.80;44.30;;;;;;5027292;28;20056;-39
2021/03/03 06:36:56;;;;;;;7.97;3.30;;;20.80;44.80;;;;;;5021076;28;20040;-41
2021/03/03 06:39:26;;;;;;;6.28;3.03;;;20.90;45.10;;;;;;5024102;28;20107;-40
2021/03/03 06:41:55;;;;;;;9.02;3.42;;;20.90;45.30;;;;;;5030362;28;20037;-38
2021/03/03 06:44:22;;;;;;;10.23;4.25;;;20.90;45.40;;;;;;5027494;28;20029;-40
2021/03/03 06:47:05;;;;;;;18.75;4.50;;;21.00;45.50;;;;;;5026214;28;20036;-42
2021/03/03 06:49:31;;;;;;;5.65;3.42;;;21.00;45.40;;;;;;5030927;28;20032;-38
2021/03/03 06:51:56;;;;;;;7.57;3.30;;;21.00;45.50;;;;;;5030170;28;20461;-40
2021/03/03 06:54:24;;;;;;;7.05;3.47;;;20.90;45.50;;;;;;5030560;28;20057;-44
2021/03/03 06:56:51;;;;;;;6.85;3.58;;;21.00;45.50;;;;;;5030172;28;20046;-48
2021/03/03 06:59:19;;;;;;;6.75;3.47;;;21.00;45.50;;;;;;5029913;28;20028;-41
2021/03/03 07:01:50;;;;;;;7.28;3.40;;;21.00;45.70;;;;;;5029555;28;20060;-40
2021/03/03 07:04:25;;;;;;;9.93;3.53;;;21.00;46.10;;;;;;5022746;28;20037;-41
2021/03/03 07:06:53;;;;;;;7.75;3.65;;;21.10;46.40;;;;;;5004814;28;20034;-39
2021/03/03 07:09:20;;;;;;;8.10;3.90;;;21.10;46.50;;;;;;5021370;28;20026;-40
2021/03/03 07:11:46;;;;;;;6.95;3.65;;;21.10;46.60;;;;;;5028367;28;20029;-46
2021/03/03 07:14:17;;;;;;;8.02;3.47;;;21.10;46.60;;;;;;5028021;28;20053;-39
2021/03/03 07:17:04;;;;;;;7.25;3.25;;;21.10;46.90;;;;;;5030857;28;20029;-39
2021/03/03 07:19:31;;;;;;;4.88;3.30;;;21.10;46.80;;;;;;5030227;28;20083;-40
2021/03/03 07:21:57;;;;;;;10.73;3.80;;;21.10;46.80;;;;;;5017287;28;20418;-39
2021/03/03 07:24:25;;;;;;;9.75;3.58;;;21.00;46.70;;;;;;5029609;28;20021;-40
2021/03/03 07:26:50;;;;;;;10.10;3.92;;;21.00;46.70;;;;;;5029108;28;20551;-44
2021/03/03 07:29:17;;;;;;;6.03;3.55;;;21.00;46.70;;;;;;5025970;28;20042;-44
2021/03/03 07:31:43;;;;;;;7.55;3.25;;;21.00;46.60;;;;;;5029706;28;20405;-40
2021/03/03 07:34:09;;;;;;;11.43;4.50;;;21.00;46.50;;;;;;5029576;28;20032;-39
2021/03/03 07:36:35;;;;;;;6.35;3.63;;;21.00;46.40;;;;;;5030057;28;20038;-40
2021/03/03 07:39:08;;;;;;;7.35;3.97;;;21.00;46.40;;;;;;5028854;28;20509;-40
2021/03/03 07:41:44;;;;;;;6.30;4.30;;;21.00;46.30;;;;;;5030462;28;20509;-40
2021/03/03 07:44:21;;;;;;;5.72;4.20;;;20.90;46.20;;;;;;5030057;28;20037;-39
2021/03/03 07:46:48;;;;;;;11.40;3.60;;;21.00;46.10;;;;;;5011420;28;20040;-42
2021/03/03 07:49:20;;;;;;;6.03;3.50;;;20.90;46.00;;;;;;5011101;28;20022;-40
2021/03/03 07:51:46;;;;;;;5.35;3.60;;;21.00;46.30;;;;;;5025546;28;20110;-42
2021/03/03 07:54:12;;;;;;;7.05;3.90;;;20.90;45.90;;;;;;5030327;28;20052;-40
2021/03/03 07:56:39;;;;;;;5.57;3.45;;;20.90;45.80;;;;;;5030669;28;20034;-39
2021/03/03 07:59:09;;;;;;;7.60;3.83;;;20.90;45.90;;;;;;5025642;28;20022;-40
2021/03/03 08:01:36;;;;;;;6.65;3.88;;;21.00;45.80;;;;;;5030144;28;20104;-39
2021/03/03 08:04:02;;;;;;;6.35;4.07;;;20.90;45.70;;;;;;5029855;28;20490;-39
2021/03/03 08:06:37;;;;;;;6.32;3.72;;;20.90;45.70;;;;;;5030101;28;20030;-39
2021/03/03 08:09:05;;;;;;;6.55;3.85;;;20.90;45.60;;;;;;5030024;28;20029;-41
2021/03/03 08:11:57;;;;;;;7.43;3.90;;;20.90;45.60;;;;;;5032801;28;20486;-39
2021/03/03 08:14:35;;;;;;;6.35;4.47;;;20.90;45.60;;;;;;5029338;28;20513;-42
2021/03/03 08:17:04;;;;;;;10.70;3.97;;;20.90;45.50;;;;;;5033271;28;20038;-41
2021/03/03 08:19:51;;;;;;;13.70;3.90;;;20.90;45.40;;;;;;5033815;28;20082;-40
2021/03/03 08:22:19;;;;;;;5.90;3.63;;;20.90;45.40;;;;;;5025158;28;20030;-39
2021/03/03 08:24:44;;;;;;;6.82;3.92;;;20.90;45.30;;;;;;5030637;28;20422;-39
2021/03/03 08:27:29;;;;;;;6.15;3.78;;;20.90;45.40;;;;;;5002591;28;20036;-39
2021/03/03 08:30:15;;;;;;;8.80;4.22;;;20.90;45.30;;;;;;5022077;28;20138;-45
2021/03/03 08:32:41;;;;;;;4.90;3.53;;;20.90;45.40;;;;;;5028094;28;20164;-40
2021/03/03 08:35:09;;;;;;;6.45;4.25;;;21.00;45.50;;;;;;5032547;28;20113;-41
2021/03/03 08:37:37;;;;;;;5.32;3.40;;;21.00;45.50;;;;;;5032935;28;20072;-40
2021/03/03 08:40:24;;;;;;;9.65;4.07;;;21.00;45.60;;;;;;5032191;28;20029;-39
2021/03/03 08:42:50;;;;;;;8.98;4.13;;;21.00;45.70;;;;;;5032493;28;20032;-46
2021/03/03 08:45:16;;;;;;;6.10;3.80;;;21.10;46.00;;;;;;5032194;28;20029;-39
2021/03/03 08:47:45;;;;;;;8.32;4.65;;;21.10;46.00;;;;;;5033409;28;20478;-40
2021/03/03 08:50:33;;;;;;;6.13;3.85;;;21.10;46.00;;;;;;5031814;28;20481;-39
2021/03/03 08:53:18;;;;;;;6.97;4.10;;;21.10;46.10;;;;;;5032504;28;20044;-40
2021/03/03 08:55:44;;;;;;;8.00;3.83;;;21.10;46.30;;;;;;5027713;28;20022;-41
2021/03/03 08:58:37;;;;;;;10.85;4.07;;;21.10;46.50;;;;;;5030544;28;20574;-39
2021/03/03 09:01:03;;;;;;;6.65;3.97;;;21.10;46.50;;;;;;5025790;28;20110;-39
2021/03/03 09:03:30;;;;;;;9.05;4.22;;;21.10;46.80;;;;;;5028797;28;20116;-41
2021/03/03 09:05:56;;;;;;;7.88;3.95;;;21.20;47.00;;;;;;5031139;28;20033;-40
2021/03/03 09:08:24;;;;;;;11.50;4.43;;;21.10;47.00;;;;;;5032265;28;20549;-42
2021/03/03 09:10:50;;;;;;;8.55;3.90;;;21.20;47.20;;;;;;5032372;28;20033;-44
2021/03/03 09:13:23;;;;;;;9.88;3.85;;;21.20;47.10;;;;;;5031538;28;20072;-39
2021/03/03 09:16:09;;;;;;;11.40;4.10;;;21.10;47.10;;;;;;5031934;28;20033;-41
2021/03/03 09:18:38;;;;;;;6.78;3.88;;;21.20;47.20;;;;;;5031524;28;20468;-41
2021/03/03 09:21:12;;;;;;;6.35;4.00;;;21.20;47.30;;;;;;5030283;28;20386;-39
2021/03/03 09:23:38;;;;;;;5.50;4.10;;;21.10;47.30;;;;;;5032048;28;20022;-41
2021/03/03 09:26:20;;;;;;;11.40;4.22;;;21.10;47.30;;;;;;5022997;28;20033;-40
2021/03/03 09:28:46;;;;;;;8.85;4.10;;;21.10;47.30;;;;;;5041681;28;20178;-40
2021/03/03 09:31:29;;;;;;;6.30;3.78;;;21.20;47.30;;;;;;5024777;28;20104;-41
2021/03/03 09:33:55;;;;;;;6.57;4.10;;;21.10;47.20;;;;;;5027904;28;20041;-47
2021/03/03 09:36:21;;;;;;;8.60;4.30;;;21.10;47.20;;;;;;5026753;28;20355;-40
2021/03/03 09:38:54;;;;;;;7.03;3.67;;;21.20;47.20;;;;;;5027990;28;20040;-39
2021/03/03 09:41:20;;;;;;;7.95;3.90;;;21.10;47.80;;;;;;5024855;28;20057;-40
2021/03/03 09:43:58;;;;;;;6.13;3.65;;;21.10;47.10;;;;;;5025926;28;20065;-40
2021/03/03 09:46:23;;;;;;;9.50;3.78;;;21.10;47.10;;;;;;5021215;28;20036;-40
2021/03/03 09:48:49;;;;;;;6.10;3.45;;;21.10;47.10;;;;;;5023436;28;20037;-39
2021/03/03 09:51:15;;;;;;;8.15;4.20;;;21.10;47.10;;;;;;5006702;28;20021;-43
2021/03/03 09:53:56;;;;;;;10.93;4.18;;;21.10;47.00;;;;;;5022224;28;20463;-39
2021/03/03 09:56:27;;;;;;;8.65;4.10;;;21.10;47.00;;;;;;5024316;28;20370;-40
2021/03/03 09:58:54;;;;;;;9.23;4.00;;;21.10;46.90;;;;;;5025123;28;20033;-46
2021/03/03 10:01:20;;;;;;;6.90;3.90;;;21.10;47.00;;;;;;5025123;28;20033;-40
2021/03/03 10:03:45;;;;;;;8.30;4.78;;;21.10;46.90;;;;;;5022583;28;20083;-39
2021/03/03 10:06:11;;;;;;;6.53;3.47;;;21.10;47.50;;;;;;5021331;28;20037;-40
2021/03/03 10:08:37;;;;;;;6.72;4.57;;;21.10;46.90;;;;;;5012253;28;20052;-41
2021/03/03 10:11:03;;;;;;;7.10;3.80;;;21.10;46.90;;;;;;5026173;28;20021;-40
2021/03/03 10:13:29;;;;;;;5.85;4.03;;;21.10;46.80;;;;;;5028498;28;20455;-40
2021/03/03 10:15:55;;;;;;;5.60;3.42;;;21.10;46.80;;;;;;5007849;28;20429;-47
2021/03/03 10:18:21;;;;;;;6.63;3.88;;;21.10;46.80;;;;;;5026341;28;20030;-40
2021/03/03 10:20:54;;;;;;;9.13;3.67;;;21.10;46.80;;;;;;5026985;28;20028;-39
2021/03/03 10:23:21;;;;;;;6.32;3.88;;;21.10;46.70;;;;;;5022755;28;20025;-41
2021/03/03 10:26:07;;;;;;;5.88;3.83;;;21.10;46.70;;;;;;5029368;28;20463;-40
2021/03/03 10:28:33;;;;;;;7.00;4.10;;;21.10;46.70;;;;;;5025993;28;20505;-43
2021/03/03 10:31:02;;;;;;;6.25;3.85;;;21.10;46.60;;;;;;5006892;28;20492;-43
2021/03/03 10:33:39;;;;;;;7.57;3.65;;;21.10;46.60;;;;;;5022991;28;20054;-40
2021/03/03 10:36:15;;;;;;;5.82;3.80;;;21.10;46.60;;;;;;5022955;28;20489;-41
2021/03/03 10:38:45;;;;;;;4.30;3.78;;;21.10;46.70;;;;;;5023994;28;20052;-40
2021/03/03 10:41:21;;;;;;;6.70;4.18;;;21.20;46.60;;;;;;5023785;28;20107;-42
2021/03/03 10:43:48;;;;;;;8.68;4.90;;;21.10;46.50;;;;;;5023252;28;20033;-40
2021/03/03 10:46:20;;;;;;;6.82;4.00;;;21.20;46.60;;;;;;5020240;28;20030;-39
2021/03/03 10:48:46;;;;;;;4.97;3.85;;;21.10;46.50;;;;;;5007499;28;20036;-43
2021/03/03 10:51:15;;;;;;;6.43;3.65;;;21.10;46.60;;;;;;5021120;28;20040;-40
2021/03/03 10:53:58;;;;;;;5.57;3.88;;;21.10;46.60;;;;;;5025262;28;20021;-40
2021/03/03 10:56:41;;;;;;;5.88;4.05;;;21.20;46.60;;;;;;5027601;28;20060;-40
2021/03/03 10:59:22;;;;;;;4.90;4.00;;;21.10;46.50;;;;;;5024975;28;20040;-41
2021/03/03 11:01:52;;;;;;;4.97;3.67;;;21.10;46.50;;;;;;5024303;28;20025;-40
2021/03/03 11:04:18;;;;;;;5.13;3.50;;;21.10;46.50;;;;;;5019238;28;20034;-44
2021/03/03 11:06:43;;;;;;;6.63;4.00;;;21.10;46.60;;;;;;5026989;28;20025;-42
2021/03/03 11:09:18;;;;;;;6.75;4.30;;;21.10;46.50;;;;;;5023706;28;20025;-40
2021/03/03 11:11:49;;;;;;;6.53;4.32;;;21.10;46.50;;;;;;5005323;28;20037;-43
2021/03/03 11:14:15;;;;;;;5.85;4.05;;;21.10;46.60;;;;;;5027769;28;20605;-42
2021/03/03 11:16:43;;;;;;;9.80;4.80;;;21.10;46.60;;;;;;5010155;28;20029;-39
2021/03/03 11:19:08;;;;;;;6.28;3.50;;;21.10;46.50;;;;;;5025540;28;20018;-39
2021/03/03 11:21:34;;;;;;;5.88;3.50;;;21.10;46.50;;;;;;5023249;28;20040;-42
2021/03/03 11:24:00;;;;;;;5.95;3.95;;;21.10;46.60;;;;;;5023568;28;20026;-40
2021/03/03 11:26:25;;;;;;;5.95;4.20;;;21.10;46.50;;;;;;5022471;28;20025;-42
2021/03/03 11:28:51;;;;;;;6.13;4.20;;;21.10;46.60;;;;;;5025787;28;20057;-41
2021/03/03 11:31:17;;;;;;;6.38;3.88;;;21.10;46.60;;;;;;5021942;28;20018;-39
2021/03/03 11:33:43;;;;;;;5.28;3.50;;;21.10;46.60;;;;;;5008913;28;20116;-39
2021/03/03 11:36:09;;;;;;;7.03;4.22;;;21.10;46.60;;;;;;5030408;28;20072;-42
2021/03/03 11:38:34;;;;;;;5.57;4.00;;;21.10;46.60;;;;;;5034050;28;20034;-41
2021/03/03 11:41:00;;;;;;;7.45;4.05;;;21.10;46.60;;;;;;5031197;28;20539;-39
2021/03/03 11:43:26;;;;;;;6.35;3.85;;;21.10;46.60;;;;;;5030311;28;20033;-41
2021/03/03 11:45:51;;;;;;;9.30;4.35;;;21.10;46.50;;;;;;5024154;28;20730;-39
2021/03/03 11:48:17;;;;;;;5.45;4.05;;;21.10;46.50;;;;;;5029320;28;20022;-41
2021/03/03 11:50:43;;;;;;;5.10;3.53;;;21.10;47.30;;;;;;5028201;28;20033;-43
2021/03/03 11:53:08;;;;;;;5.43;3.88;;;21.10;46.60;;;;;;5009717;28;20437;-40
2021/03/03 11:55:34;;;;;;;7.50;4.32;;;21.10;46.60;;;;;;5029952;28;20104;-42
2021/03/03 11:58:00;;;;;;;7.38;3.83;;;21.10;46.60;;;;;;5025374;28;20399;-42
2021/03/03 12:00:26;;;;;;;6.38;3.70;;;21.10;46.50;;;;;;5007949;28;20079;-40
2021/03/03 12:02:51;;;;;;;6.25;4.47;;;21.10;46.60;;;;;;5030770;28;20545;-40
2021/03/03 12:05:17;;;;;;;5.82;3.67;;;21.10;46.60;;;;;;5022421;28;20029;-39
2021/03/03 12:07:43;;;;;;;5.95;3.72;;;21.10;46.50;;;;;;5028963;28;20053;-40
2021/03/03 12:10:09;;;;;;;5.63;3.72;;;21.10;46.50;;;;;;5027669;28;20038;-42
2021/03/03 12:12:34;;;;;;;5.72;4.07;;;21.10;46.60;;;;;;5028032;28;20029;-40
2021/03/03 12:15:00;;;;;;;6.50;3.70;;;21.10;46.50;;;;;;5038027;28;20033;-39
2021/03/03 12:17:27;;;;;;;7.30;4.07;;;21.10;46.50;;;;;;5039200;28;20037;-40
2021/03/03 12:19:54;;;;;;;6.80;3.72;;;21.10;46.80;;;;;;5040329;28;20037;-39
2021/03/03 12:22:19;;;;;;;7.32;3.90;;;21.10;47.10;;;;;;5040090;28;20524;-45
2021/03/03 12:24:45;;;;;;;6.82;4.18;;;21.20;47.20;;;;;;5042009;28;20038;-39
2021/03/03 12:27:11;;;;;;;7.45;3.97;;;21.10;47.30;;;;;;5034797;28;20096;-39
2021/03/03 12:29:37;;;;;;;9.52;3.78;;;21.20;47.30;;;;;;5025358;28;20087;-39
2021/03/03 12:32:03;;;;;;;9.98;4.43;;;21.20;47.40;;;;;;5037745;28;20053;-39
2021/03/03 12:34:29;;;;;;;7.40;4.07;;;21.10;47.30;;;;;;5040357;28;20124;-39
2021/03/03 12:36:54;;;;;;;4.65;3.58;;;21.10;47.50;;;;;;5043460;28;20128;-47
2021/03/03 12:39:20;;;;;;;9.13;4.88;;;21.10;47.50;;;;;;5043118;28;20035;-42
2021/03/03 12:41:46;;;;;;;7.18;4.38;;;21.10;47.40;;;;;;5022654;28;20068;-39
2021/03/03 12:44:11;;;;;;;8.75;4.60;;;21.20;47.50;;;;;;5039910;28;20060;-39
2021/03/03 12:46:37;;;;;;;9.60;5.07;;;21.10;47.60;;;;;;5046501;28;20025;-39
2021/03/03 12:49:03;;;;;;;8.57;4.75;;;21.10;47.70;;;;;;5017910;28;20033;-39
2021/03/03 12:51:29;;;;;;;8.02;4.63;;;21.10;47.70;;;;;;5025185;28;20038;-39
2021/03/03 12:53:54;;;;;;;7.05;4.18;;;21.20;47.90;;;;;;5027447;28;20371;-42